createdAt,value
2024-03-14T00:04:44.261Z,7.20
2024-03-14T00:07:11.551Z,7.90
2024-03-14T00:09:38.273Z,10.57
2024-03-14T00:12:06.134Z,8.83
2024-03-14T00:14:33.008Z,8.47
2024-03-14T00:16:59.745Z,10.00
2024-03-14T00:19:26.357Z,9.40
2024-03-14T00:21:52.981Z,8.30
2024-03-14T00:24:19.632Z,8.10
2024-03-14T00:26:46.302Z,7.53
2024-03-14T00:29:12.947Z,7.57
2024-03-14T00:31:39.952Z,8.37
2024-03-14T00:34:09.328Z,9.90
2024-03-14T00:36:39.025Z,8.43
2024-03-14T00:39:09.001Z,8.10
2024-03-14T00:41:35.684Z,10.77
2024-03-14T00:44:04.193Z,9.07
2024-03-14T00:46:36.782Z,10.30
2024-03-14T00:49:03.623Z,11.00
2024-03-14T00:51:30.394Z,10.37
2024-03-14T00:53:57.071Z,13.00
2024-03-14T00:56:26.099Z,10.23
2024-03-14T00:58:52.702Z,12.10
2024-03-14T01:01:19.583Z,15.23
2024-03-14T01:03:46.196Z,11.67
2024-03-14T01:06:12.978Z,11.00
2024-03-14T01:08:39.950Z,12.40
2024-03-14T01:11:06.982Z,11.00
2024-03-14T01:13:33.652Z,10.70
2024-03-14T01:16:00.498Z,10.93
2024-03-14T01:18:27.189Z,11.10
2024-03-14T01:20:53.856Z,13.13
2024-03-14T01:23:20.486Z,11.57
2024-03-14T01:25:47.133Z,15.83
2024-03-14T01:28:13.730Z,12.43
2024-03-14T01:30:43.517Z,12.70
2024-03-14T01:33:10.507Z,14.43
2024-03-14T01:35:37.227Z,13.53
2024-03-14T01:38:04.015Z,11.57
2024-03-14T01:40:30.692Z,12.77
2024-03-14T01:42:58.424Z,12.10
2024-03-14T01:45:25.648Z,12.03
2024-03-14T01:47:52.466Z,13.33
2024-03-14T01:50:19.186Z,13.13
2024-03-14T01:52:45.928Z,11.20
2024-03-14T01:55:14.524Z,14.47
2024-03-14T01:57:42.500Z,12.33
2024-03-14T02:00:12.537Z,11.30
2024-03-14T02:02:39.322Z,13.70
2024-03-14T02:05:47.263Z,11.57
2024-03-14T02:08:14.342Z,13.30
2024-03-14T02:13:12.586Z,12.17
2024-03-14T02:15:39.826Z,11.37
2024-03-14T02:18:06.921Z,13.70
2024-03-14T02:20:33.605Z,12.07
2024-03-14T02:23:00.333Z,13.50
2024-03-14T02:25:26.938Z,14.20
2024-03-14T02:27:53.595Z,12.37
2024-03-14T02:30:20.331Z,13.07
2024-03-14T02:32:49.154Z,12.97
2024-03-14T02:35:15.948Z,12.87
2024-03-14T02:37:42.573Z,14.50
2024-03-14T02:40:12.642Z,12.47
2024-03-14T02:42:39.371Z,15.07
2024-03-14T02:45:07.509Z,11.13
2024-03-14T02:47:34.213Z,12.83
2024-03-14T02:50:00.842Z,13.13
2024-03-14T02:52:27.685Z,13.37
2024-03-14T02:54:54.491Z,12.17
2024-03-14T02:57:21.154Z,14.47
2024-03-14T02:59:48.113Z,12.60
2024-03-14T03:02:16.683Z,12.30
2024-03-14T03:04:45.526Z,13.47
2024-03-14T03:07:13.277Z,11.87
2024-03-14T03:09:42.186Z,13.60
2024-03-14T03:12:09.197Z,15.00
2024-03-14T03:14:37.428Z,12.10
2024-03-14T03:17:06.487Z,12.50
2024-03-14T03:19:33.177Z,15.77
2024-03-14T03:21:59.944Z,15.50
2024-03-14T03:24:26.685Z,13.37
2024-03-14T03:26:53.416Z,15.00
2024-03-14T03:29:21.419Z,13.83
2024-03-14T03:31:48.073Z,17.53
2024-03-14T03:34:14.735Z,16.33
2024-03-14T03:36:42.749Z,15.30
2024-03-14T03:39:13.691Z,17.40
2024-03-14T03:41:40.907Z,15.93
2024-03-14T03:44:07.629Z,16.33
2024-03-14T03:46:36.312Z,17.17
2024-03-14T03:51:30.867Z,16.43
2024-03-14T03:53:58.102Z,18.00
2024-03-14T03:56:25.928Z,19.60
2024-03-14T03:58:53.140Z,17.77
2024-03-14T04:01:23.610Z,17.60
2024-03-14T04:03:52.208Z,18.37
2024-03-14T04:06:18.846Z,17.57
2024-03-14T04:08:48.825Z,17.93
2024-03-14T04:11:17.418Z,17.40
2024-03-14T04:13:44.593Z,18.27
2024-03-14T04:16:13.881Z,21.97
2024-03-14T04:18:40.912Z,19.27
2024-03-14T04:21:09.304Z,16.90
2024-03-14T04:23:36.887Z,19.27
2024-03-14T04:26:04.152Z,16.93
2024-03-14T04:28:30.953Z,19.07
2024-03-14T04:30:57.905Z,23.10
2024-03-14T04:33:24.801Z,18.97
2024-03-14T04:35:51.762Z,18.57
2024-03-14T04:38:19.818Z,17.03
2024-03-14T04:40:46.526Z,20.20
2024-03-14T04:43:14.680Z,21.13
2024-03-14T04:45:42.007Z,19.37
2024-03-14T04:48:09.016Z,20.37
2024-03-14T04:50:36.067Z,18.67
2024-03-14T04:53:02.870Z,20.20
2024-03-14T04:55:30.206Z,23.10
2024-03-14T04:57:56.837Z,19.23
2024-03-14T05:00:24.604Z,20.30
2024-03-14T05:02:53.332Z,19.43
2024-03-14T05:05:22.396Z,22.80
2024-03-14T05:07:49.983Z,18.93
2024-03-14T05:10:20.091Z,19.23
2024-03-14T05:12:47.713Z,21.43
2024-03-14T05:15:15.934Z,19.17
2024-03-14T05:17:43.200Z,22.67
2024-03-14T05:20:12.060Z,22.57
2024-03-14T05:22:39.786Z,21.07
2024-03-14T05:25:14.209Z,20.13
2024-03-14T05:27:45.342Z,21.13
2024-03-14T05:30:14.309Z,19.73
2024-03-14T05:32:41.493Z,19.03
2024-03-14T05:35:08.143Z,22.07
2024-03-14T05:37:34.772Z,24.27
2024-03-14T05:40:01.416Z,19.60
2024-03-14T05:42:28.108Z,23.83
2024-03-14T05:44:57.917Z,22.47
2024-03-14T05:47:27.988Z,20.20
2024-03-14T05:49:54.804Z,20.37
2024-03-14T05:52:21.443Z,20.23
2024-03-14T05:54:48.089Z,24.00
2024-03-14T05:57:16.156Z,20.97
2024-03-14T05:59:43.205Z,22.70
2024-03-14T06:02:09.906Z,20.10
2024-03-14T06:04:36.652Z,21.77
2024-03-14T06:07:03.568Z,20.93
2024-03-14T06:09:34.210Z,20.73
2024-03-14T06:12:01.574Z,21.07
2024-03-14T06:14:28.392Z,21.30
2024-03-14T06:16:55.171Z,20.43
2024-03-14T06:19:23.203Z,21.80
2024-03-14T06:21:51.519Z,21.17
2024-03-14T06:24:18.382Z,22.17
2024-03-14T06:26:46.517Z,20.73
2024-03-14T06:29:13.258Z,23.27
2024-03-14T06:31:39.988Z,24.70
2024-03-14T06:34:06.826Z,22.47
2024-03-14T06:36:33.709Z,20.47
2024-03-14T06:39:00.484Z,25.07
2024-03-14T06:41:27.144Z,20.97
2024-03-14T06:43:53.795Z,25.27
2024-03-14T06:46:24.794Z,24.13
2024-03-14T06:48:51.487Z,27.17
2024-03-14T06:51:18.225Z,22.60
2024-03-14T06:53:46.583Z,25.43
2024-03-14T06:56:15.306Z,26.53
2024-03-14T06:58:42.051Z,24.90
2024-03-14T07:01:09.704Z,25.53
2024-03-14T07:03:36.453Z,24.53
2024-03-14T07:06:03.396Z,27.93
2024-03-14T07:08:30.067Z,26.60
2024-03-14T07:10:56.753Z,23.50
2024-03-14T07:13:24.753Z,26.57
2024-03-14T07:15:51.391Z,26.33
2024-03-14T07:18:18.238Z,24.97
2024-03-14T07:20:46.015Z,26.67
2024-03-14T07:23:14.796Z,25.07
2024-03-14T07:25:42.986Z,26.00
2024-03-14T07:28:10.768Z,23.33
2024-03-14T07:30:37.593Z,22.67
2024-03-14T07:33:04.638Z,24.43
2024-03-14T07:35:31.868Z,24.73
2024-03-14T07:37:59.627Z,24.77
2024-03-14T07:40:33.954Z,22.53
2024-03-14T07:43:00.949Z,27.00
2024-03-14T07:45:27.771Z,25.67
2024-03-14T07:47:54.922Z,24.27
2024-03-14T07:50:24.155Z,22.53
2024-03-14T07:52:51.253Z,22.37
2024-03-14T07:55:18.538Z,23.10
2024-03-14T07:57:45.347Z,21.53
2024-03-14T08:00:16.492Z,23.87
2024-03-14T08:02:43.546Z,24.40
2024-03-14T08:05:10.318Z,24.03
2024-03-14T08:07:39.930Z,24.47
2024-03-14T08:10:09.488Z,21.87
2024-03-14T08:12:36.262Z,23.47
2024-03-14T08:15:18.498Z,25.57
2024-03-14T08:17:45.893Z,20.10
2024-03-14T08:20:16.999Z,22.37
2024-03-14T08:22:44.287Z,22.20
2024-03-14T08:25:17.212Z,22.37
2024-03-14T08:27:50.545Z,20.70
2024-03-14T08:30:19.161Z,22.30
2024-03-14T08:32:45.962Z,25.37
2024-03-14T08:35:15.687Z,22.87
2024-03-14T08:37:44.898Z,20.90
2024-03-14T08:40:13.235Z,21.30
2024-03-14T08:42:46.210Z,18.40
2024-03-14T08:45:15.832Z,18.40
2024-03-14T08:47:43.876Z,19.37
2024-03-14T08:50:16.212Z,20.73
2024-03-14T08:52:43.030Z,20.57
2024-03-14T08:55:24.895Z,21.20
2024-03-14T08:57:52.575Z,19.10
2024-03-14T09:00:23.204Z,16.47
2024-03-14T09:02:51.170Z,21.10
2024-03-14T09:05:18.501Z,20.77
2024-03-14T09:07:47.085Z,21.90
2024-03-14T09:10:29.282Z,19.70
2024-03-14T09:12:56.737Z,17.63
2024-03-14T09:15:25.307Z,21.70
2024-03-14T09:17:52.539Z,19.20
2024-03-14T09:20:22.704Z,17.07
2024-03-14T09:22:56.425Z,17.17
2024-03-14T09:25:24.575Z,18.17
2024-03-14T09:27:54.703Z,18.07
2024-03-14T09:30:23.601Z,18.70
2024-03-14T09:32:52.073Z,20.43
2024-03-14T09:35:27.080Z,16.50
2024-03-14T09:37:58.443Z,17.57
2024-03-14T09:40:25.579Z,18.73
2024-03-14T09:43:00.675Z,18.10
2024-03-14T09:45:28.355Z,19.03
2024-03-14T09:47:58.767Z,19.23
2024-03-14T09:50:28.082Z,16.53
2024-03-14T09:52:56.043Z,15.60
2024-03-14T09:55:29.676Z,15.60
2024-03-14T09:57:57.236Z,18.67
2024-03-14T10:00:27.159Z,15.27
2024-03-14T10:02:54.522Z,16.13
2024-03-14T10:05:22.885Z,14.63
2024-03-14T10:07:50.807Z,13.13
2024-03-14T10:10:18.005Z,13.33
2024-03-14T10:12:55.707Z,12.77
2024-03-14T10:15:23.224Z,14.43
2024-03-14T10:17:52.506Z,14.83
2024-03-14T10:20:19.770Z,12.73
2024-03-14T10:22:49.671Z,13.83
2024-03-14T10:25:40.206Z,14.30
2024-03-14T10:28:19.032Z,13.13
2024-03-14T10:30:53.130Z,12.83
2024-03-14T10:33:21.633Z,13.27
2024-03-14T10:35:48.340Z,15.40
2024-03-14T10:38:21.041Z,11.33
2024-03-14T10:40:49.431Z,12.77
2024-03-14T10:43:18.542Z,12.57
2024-03-14T10:45:45.290Z,11.87
2024-03-14T10:48:12.707Z,12.30
2024-03-14T10:50:39.946Z,10.67
2024-03-14T10:53:07.620Z,10.90
2024-03-14T10:55:35.570Z,11.80
2024-03-14T10:58:06.459Z,10.50
2024-03-14T11:00:35.680Z,10.87
2024-03-14T11:03:04.535Z,12.97
2024-03-14T11:05:32.276Z,14.30
2024-03-14T11:08:01.772Z,11.70
2024-03-14T11:10:30.306Z,11.53
2024-03-14T11:13:12.432Z,12.03
2024-03-14T11:15:40.420Z,10.40
2024-03-14T11:18:14.156Z,8.60
2024-03-14T11:20:52.893Z,8.47
2024-03-14T11:23:26.003Z,8.33
2024-03-14T11:25:57.579Z,8.77
2024-03-14T11:28:25.714Z,9.40
2024-03-14T11:30:54.107Z,7.50
2024-03-14T11:33:21.148Z,7.40
2024-03-14T11:35:49.388Z,7.63
2024-03-14T11:38:20.066Z,7.97
2024-03-14T11:40:47.576Z,8.30
2024-03-14T11:43:21.762Z,8.13
2024-03-14T11:45:58.564Z,9.00
2024-03-14T11:48:26.718Z,10.70
2024-03-14T11:50:59.344Z,6.47
2024-03-14T11:53:26.890Z,8.20
2024-03-14T11:55:59.040Z,6.90
2024-03-14T11:58:34.971Z,7.20
2024-03-14T12:01:02.039Z,7.63
2024-03-14T12:03:28.893Z,8.30
2024-03-14T12:05:59.080Z,8.10
2024-03-14T12:08:26.116Z,10.10
2024-03-14T12:10:56.579Z,10.77
2024-03-14T12:13:28.217Z,10.43
2024-03-14T12:15:59.202Z,8.00
2024-03-14T12:18:25.948Z,8.50
2024-03-14T12:20:54.967Z,7.03
2024-03-14T12:23:23.594Z,9.13
2024-03-14T12:25:55.962Z,7.10
2024-03-14T12:28:23.148Z,7.40
2024-03-14T12:30:59.382Z,8.73
2024-03-14T12:33:28.814Z,6.73
2024-03-14T12:35:56.366Z,6.63
2024-03-14T12:38:23.846Z,7.40
2024-03-14T12:40:54.260Z,10.77
2024-03-14T12:43:22.110Z,5.67
2024-03-14T12:45:50.713Z,6.03
2024-03-14T12:48:19.353Z,7.33
2024-03-14T12:50:47.380Z,6.30
2024-03-14T12:53:16.612Z,5.90
2024-03-14T12:55:51.714Z,6.10
2024-03-14T12:58:23.337Z,6.60
2024-03-14T13:00:53.597Z,7.67
2024-03-14T13:03:23.586Z,7.80
2024-03-14T13:06:00.698Z,9.23
2024-03-14T13:08:29.481Z,8.83
2024-03-14T13:11:07.744Z,7.77
2024-03-14T13:13:34.758Z,7.50
2024-03-14T13:16:30.620Z,10.23
2024-03-14T13:18:57.504Z,7.20
2024-03-14T13:21:26.909Z,10.10
2024-03-14T13:23:54.595Z,6.97
2024-03-14T13:26:24.455Z,7.57
2024-03-14T13:28:53.154Z,10.20
2024-03-14T13:31:21.799Z,6.20
2024-03-14T13:33:48.566Z,7.13
2024-03-14T13:36:17.553Z,7.23
2024-03-14T13:38:44.886Z,7.20
2024-03-14T13:41:13.989Z,6.97
2024-03-14T13:43:41.037Z,6.27
2024-03-14T13:46:09.320Z,6.43
2024-03-14T13:48:36.185Z,7.57
2024-03-14T13:51:04.149Z,8.67
2024-03-14T13:53:33.146Z,6.57
2024-03-14T13:56:01.078Z,6.60
